sensor_id;sensor_type;location;lat;lon;timestamp;temperature;humidity
27667;DHT22;15074;50.940;5.282;2023-08-01T00:01:06;16.90;99.90
27667;DHT22;15074;50.940;5.282;2023-08-01T00:03:31;16.90;99.90
27667;DHT22;15074;50.940;5.282;2023-08-01T00:05:57;16.90;99.90
27667;DHT22;15074;50.940;5.282;2023-08-01T00:08:23;16.90;99.90
27667;DHT22;15074;50.940;5.282;2023-08-01T00:10:49;16.90;99.90
27667;DHT22;15074;50.940;5.282;2023-08-01T00:13:14;16.90;99.90
27667;DHT22;15074;50.940;5.282;2023-08-01T00:15:40;16.90;99.90
27667;DHT22;15074;50.940;5.282;2023-08-01T00:18:05;16.80;99.90
27667;DHT22;15074;50.940;5.282;2023-08-01T00:20:31;16.80;99.90
27667;DHT22;15074;50.940;5.282;2023-08-01T00:22:57;16.80;99.90
27667;DHT22;15074;50.940;5.282;2023-08-01T00:25:23;16.80;99.90
27667;DHT22;15074;50.940;5.282;2023-08-01T00:27:48;16.80;99.90
27667;DHT22;15074;50.940;5.282;2023-08-01T00:30:14;16.70;99.90
27667;DHT22;15074;50.940;5.282;2023-08-01T00:32:39;16.80;99.90
27667;DHT22;15074;50.940;5.282;2023-08-01T00:35:05;16.70;99.90
27667;DHT22;15074;50.940;5.282;2023-08-01T00:37:31;16.70;99.90
27667;DHT22;15074;50.940;5.282;2023-08-01T00:39:56;16.70;99.90
27667;DHT22;15074;50.940;5.282;2023-08-01T00:42:22;16.60;99.90
27667;DHT22;15074;50.940;5.282;2023-08-01T00:44:48;16.60;99.90
27667;DHT22;15074;50.940;5.282;2023-08-01T00:47:15;16.50;99.90
27667;DHT22;15074;50.940;5.282;2023-08-01T00:49:40;16.50;99.90
27667;DHT22;15074;50.940;5.282;2023-08-01T00:52:07;16.40;99.90
27667;DHT22;15074;50.940;5.282;2023-08-01T00:54:34;16.40;99.90
27667;DHT22;15074;50.940;5.282;2023-08-01T00:57:03;16.40;99.90
27667;DHT22;15074;50.940;5.282;2023-08-01T00:59:29;16.40;99.90
27667;DHT22;15074;50.940;5.282;2023-08-01T01:01:55;16.40;99.90
27667;DHT22;15074;50.940;5.282;2023-08-01T01:04:21;16.40;99.90
27667;DHT22;15074;50.940;5.282;2023-08-01T01:07:02;16.40;99.90
27667;DHT22;15074;50.940;5.282;2023-08-01T01:09:29;16.40;99.90
27667;DHT22;15074;50.940;5.282;2023-08-01T01:11:57;16.30;99.90
27667;DHT22;15074;50.940;5.282;2023-08-01T01:14:24;16.30;99.90
27667;DHT22;15074;50.940;5.282;2023-08-01T01:16:51;16.30;99.90
27667;DHT22;15074;50.940;5.282;2023-08-01T01:19:17;16.20;99.90
27667;DHT22;15074;50.940;5.282;2023-08-01T01:21:43;16.20;99.90
27667;DHT22;15074;50.940;5.282;2023-08-01T01:24:10;16.10;99.90
27667;DHT22;15074;50.940;5.282;2023-08-01T01:26:37;16.10;99.90
27667;DHT22;15074;50.940;5.282;2023-08-01T01:29:05;16.00;99.90
27667;DHT22;15074;50.940;5.282;2023-08-01T01:31:34;16.00;99.90
27667;DHT22;15074;50.940;5.282;2023-08-01T01:34:00;16.00;99.90
27667;DHT22;15074;50.940;5.282;2023-08-01T01:36:26;15.90;99.90
27667;DHT22;15074;50.940;5.282;2023-08-01T01:38:51;15.90;99.90
27667;DHT22;15074;50.940;5.282;2023-08-01T01:41:17;15.90;99.90
27667;DHT22;15074;50.940;5.282;2023-08-01T01:43:43;15.80;99.90
27667;DHT22;15074;50.940;5.282;2023-08-01T01:46:09;15.80;99.90
27667;DHT22;15074;50.940;5.282;2023-08-01T01:48:35;15.80;99.90
27667;DHT22;15074;50.940;5.282;2023-08-01T01:51:01;15.70;99.90
27667;DHT22;15074;50.940;5.282;2023-08-01T01:53:26;15.80;99.90
27667;DHT22;15074;50.940;5.282;2023-08-01T01:55:52;15.80;99.90
27667;DHT22;15074;50.940;5.282;2023-08-01T01:58:18;15.80;99.90
27667;DHT22;15074;50.940;5.282;2023-08-01T02:00:43;15.80;99.90
27667;DHT22;15074;50.940;5.282;2023-08-01T02:03:09;15.80;99.90
27667;DHT22;15074;50.940;5.282;2023-08-01T02:05:36;15.70;99.90
27667;DHT22;15074;50.940;5.282;2023-08-01T02:08:02;15.80;99.90
27667;DHT22;15074;50.940;5.282;2023-08-01T02:10:30;15.70;99.90
27667;DHT22;15074;50.940;5.282;2023-08-01T02:12:56;15.70;99.90
27667;DHT22;15074;50.940;5.282;2023-08-01T02:15:21;15.70;99.90
27667;DHT22;15074;50.940;5.282;2023-08-01T02:17:47;15.60;99.90
27667;DHT22;15074;50.940;5.282;2023-08-01T02:20:12;15.60;99.90
27667;DHT22;15074;50.940;5.282;2023-08-01T02:22:38;15.50;99.90
27667;DHT22;15074;50.940;5.282;2023-08-01T02:25:04;15.50;99.90
27667;DHT22;15074;50.940;5.282;2023-08-01T02:27:30;15.50;99.90
27667;DHT22;15074;50.940;5.282;2023-08-01T02:29:55;15.50;99.90
27667;DHT22;15074;50.940;5.282;2023-08-01T02:32:21;15.50;99.90
27667;DHT22;15074;50.940;5.282;2023-08-01T02:34:47;15.50;99.90
27667;DHT22;15074;50.940;5.282;2023-08-01T02:37:13;15.40;99.90
27667;DHT22;15074;50.940;5.282;2023-08-01T02:39:38;15.40;99.90
27667;DHT22;15074;50.940;5.282;2023-08-01T02:42:04;15.40;99.90
27667;DHT22;15074;50.940;5.282;2023-08-01T02:44:30;15.40;99.90
27667;DHT22;15074;50.940;5.282;2023-08-01T02:46:55;15.40;99.90
27667;DHT22;15074;50.940;5.282;2023-08-01T02:49:21;15.40;99.90
27667;DHT22;15074;50.940;5.282;2023-08-01T02:51:47;15.40;99.90
27667;DHT22;15074;50.940;5.282;2023-08-01T02:54:12;15.40;99.90
27667;DHT22;15074;50.940;5.282;2023-08-01T02:56:38;15.40;99.90
27667;DHT22;15074;50.940;5.282;2023-08-01T02:59:09;15.40;99.90
27667;DHT22;15074;50.940;5.282;2023-08-01T03:01:36;15.40;99.90
27667;DHT22;15074;50.940;5.282;2023-08-01T03:04:06;15.40;99.90
27667;DHT22;15074;50.940;5.282;2023-08-01T03:06:35;15.40;99.90
27667;DHT22;15074;50.940;5.282;2023-08-01T03:09:00;15.40;99.90
27667;DHT22;15074;50.940;5.282;2023-08-01T03:11:26;15.40;99.90
27667;DHT22;15074;50.940;5.282;2023-08-01T03:13:52;15.50;99.90
27667;DHT22;15074;50.940;5.282;2023-08-01T03:16:18;15.50;99.90
27667;DHT22;15074;50.940;5.282;2023-08-01T03:18:43;15.50;99.90
27667;DHT22;15074;50.940;5.282;2023-08-01T03:21:10;15.50;99.90
27667;DHT22;15074;50.940;5.282;2023-08-01T03:23:36;15.50;99.90
27667;DHT22;15074;50.940;5.282;2023-08-01T03:26:01;15.50;99.90
27667;DHT22;15074;50.940;5.282;2023-08-01T03:28:27;15.50;99.90
27667;DHT22;15074;50.940;5.282;2023-08-01T03:30:53;15.50;99.90
27667;DHT22;15074;50.940;5.282;2023-08-01T03:33:22;15.50;99.90
27667;DHT22;15074;50.940;5.282;2023-08-01T03:35:48;15.40;99.90
27667;DHT22;15074;50.940;5.282;2023-08-01T03:38:13;15.40;99.90
27667;DHT22;15074;50.940;5.282;2023-08-01T03:40:39;15.50;99.90
27667;DHT22;15074;50.940;5.282;2023-08-01T03:43:05;15.50;99.90
27667;DHT22;15074;50.940;5.282;2023-08-01T03:45:33;15.60;99.90
27667;DHT22;15074;50.940;5.282;2023-08-01T03:47:59;15.50;99.90
27667;DHT22;15074;50.940;5.282;2023-08-01T03:50:25;15.50;99.90
27667;DHT22;15074;50.940;5.282;2023-08-01T03:52:50;15.50;99.90
27667;DHT22;15074;50.940;5.282;2023-08-01T03:55:17;15.50;99.90
27667;DHT22;15074;50.940;5.282;2023-08-01T03:57:42;15.40;99.90
27667;DHT22;15074;50.940;5.282;2023-08-01T04:00:09;15.40;99.90
27667;DHT22;15074;50.940;5.282;2023-08-01T04:02:43;15.40;99.90
27667;DHT22;15074;50.940;5.282;2023-08-01T04:05:09;15.40;99.90
27667;DHT22;15074;50.940;5.282;2023-08-01T04:07:36;15.40;99.90
27667;DHT22;15074;50.940;5.282;2023-08-01T04:10:02;15.40;99.90
27667;DHT22;15074;50.940;5.282;2023-08-01T04:12:30;15.40;99.90
27667;DHT22;15074;50.940;5.282;2023-08-01T04:14:56;15.40;99.90
27667;DHT22;15074;50.940;5.282;2023-08-01T04:17:21;15.40;99.90
27667;DHT22;15074;50.940;5.282;2023-08-01T04:19:47;15.40;99.90
27667;DHT22;15074;50.940;5.282;2023-08-01T04:22:13;15.40;99.90
27667;DHT22;15074;50.940;5.282;2023-08-01T04:24:38;15.40;99.90
27667;DHT22;15074;50.940;5.282;2023-08-01T04:27:04;15.40;99.90
27667;DHT22;15074;50.940;5.282;2023-08-01T04:29:30;15.40;99.90
27667;DHT22;15074;50.940;5.282;2023-08-01T04:31:56;15.30;99.90
27667;DHT22;15074;50.940;5.282;2023-08-01T04:34:22;15.30;99.90
27667;DHT22;15074;50.940;5.282;2023-08-01T04:36:48;15.20;99.90
27667;DHT22;15074;50.940;5.282;2023-08-01T04:39:13;15.20;99.90
27667;DHT22;15074;50.940;5.282;2023-08-01T04:41:39;15.20;99.90
27667;DHT22;15074;50.940;5.282;2023-08-01T04:44:05;15.20;99.90
27667;DHT22;15074;50.940;5.282;2023-08-01T04:46:31;15.30;99.90
27667;DHT22;15074;50.940;5.282;2023-08-01T04:48:57;15.30;99.90
27667;DHT22;15074;50.940;5.282;2023-08-01T04:51:24;15.30;99.90
27667;DHT22;15074;50.940;5.282;2023-08-01T04:53:50;15.40;99.90
27667;DHT22;15074;50.940;5.282;2023-08-01T04:56:15;15.40;99.90
27667;DHT22;15074;50.940;5.282;2023-08-01T04:58:41;15.50;99.90
27667;DHT22;15074;50.940;5.282;2023-08-01T05:01:07;15.50;99.90
27667;DHT22;15074;50.940;5.282;2023-08-01T05:03:32;15.50;99.90
27667;DHT22;15074;50.940;5.282;2023-08-01T05:05:58;15.50;99.90
27667;DHT22;15074;50.940;5.282;2023-08-01T05:08:24;15.60;99.90
27667;DHT22;15074;50.940;5.282;2023-08-01T05:10:49;15.60;99.90
27667;DHT22;15074;50.940;5.282;2023-08-01T05:13:15;15.60;99.90
27667;DHT22;15074;50.940;5.282;2023-08-01T05:15:44;15.60;99.90
27667;DHT22;15074;50.940;5.282;2023-08-01T05:18:10;15.60;99.90
27667;DHT22;15074;50.940;5.282;2023-08-01T05:20:36;15.70;99.90
27667;DHT22;15074;50.940;5.282;2023-08-01T05:23:01;15.90;99.90
27667;DHT22;15074;50.940;5.282;2023-08-01T05:25:27;16.00;99.90
27667;DHT22;15074;50.940;5.282;2023-08-01T05:27:53;16.30;99.90
27667;DHT22;15074;50.940;5.282;2023-08-01T05:30:18;16.50;99.90
27667;DHT22;15074;50.940;5.282;2023-08-01T05:32:44;16.40;99.90
27667;DHT22;15074;50.940;5.282;2023-08-01T05:35:11;16.30;99.90
27667;DHT22;15074;50.940;5.282;2023-08-01T05:37:36;16.30;99.90
27667;DHT22;15074;50.940;5.282;2023-08-01T05:40:03;16.30;99.90
27667;DHT22;15074;50.940;5.282;2023-08-01T05:42:29;16.20;99.90
27667;DHT22;15074;50.940;5.282;2023-08-01T05:44:54;16.20;99.90
27667;DHT22;15074;50.940;5.282;2023-08-01T05:47:20;16.30;99.90
27667;DHT22;15074;50.940;5.282;2023-08-01T05:49:48;16.30;99.90
27667;DHT22;15074;50.940;5.282;2023-08-01T05:52:14;16.30;99.90
27667;DHT22;15074;50.940;5.282;2023-08-01T05:54:40;16.30;99.90
27667;DHT22;15074;50.940;5.282;2023-08-01T05:57:06;16.40;99.90
27667;DHT22;15074;50.940;5.282;2023-08-01T05:59:31;16.60;99.90
27667;DHT22;15074;50.940;5.282;2023-08-01T06:01:57;16.60;99.90
27667;DHT22;15074;50.940;5.282;2023-08-01T06:04:23;16.50;99.90
27667;DHT22;15074;50.940;5.282;2023-08-01T06:06:49;16.40;99.90
27667;DHT22;15074;50.940;5.282;2023-08-01T06:09:14;16.50;99.90
27667;DHT22;15074;50.940;5.282;2023-08-01T06:11:41;16.50;99.90
27667;DHT22;15074;50.940;5.282;2023-08-01T06:14:08;16.60;99.90
27667;DHT22;15074;50.940;5.282;2023-08-01T06:16:34;16.60;99.90
27667;DHT22;15074;50.940;5.282;2023-08-01T06:18:59;16.60;99.90
27667;DHT22;15074;50.940;5.282;2023-08-01T06:21:26;16.60;99.90
27667;DHT22;15074;50.940;5.282;2023-08-01T06:23:51;16.60;99.90
27667;DHT22;15074;50.940;5.282;2023-08-01T06:26:17;16.80;99.90
27667;DHT22;15074;50.940;5.282;2023-08-01T06:28:43;17.10;99.90
27667;DHT22;15074;50.940;5.282;2023-08-01T06:31:08;17.20;99.90
27667;DHT22;15074;50.940;5.282;2023-08-01T06:33:34;17.20;99.90
27667;DHT22;15074;50.940;5.282;2023-08-01T06:36:00;17.20;99.90
27667;DHT22;15074;50.940;5.282;2023-08-01T06:38:25;16.90;99.90
27667;DHT22;15074;50.940;5.282;2023-08-01T06:40:51;17.00;99.90
27667;DHT22;15074;50.940;5.282;2023-08-01T06:43:17;17.00;99.90
27667;DHT22;15074;50.940;5.282;2023-08-01T06:45:42;17.20;99.90
27667;DHT22;15074;50.940;5.282;2023-08-01T06:48:08;17.20;99.90
27667;DHT22;15074;50.940;5.282;2023-08-01T06:50:34;17.10;99.90
27667;DHT22;15074;50.940;5.282;2023-08-01T06:53:00;17.10;99.90
27667;DHT22;15074;50.940;5.282;2023-08-01T06:55:26;17.00;99.90
27667;DHT22;15074;50.940;5.282;2023-08-01T06:57:52;17.00;99.90
27667;DHT22;15074;50.940;5.282;2023-08-01T07:00:18;17.00;99.90
27667;DHT22;15074;50.940;5.282;2023-08-01T07:02:44;17.10;99.90
27667;DHT22;15074;50.940;5.282;2023-08-01T07:05:09;17.20;99.90
27667;DHT22;15074;50.940;5.282;2023-08-01T07:07:35;17.40;99.90
27667;DHT22;15074;50.940;5.282;2023-08-01T07:10:01;17.60;99.90
27667;DHT22;15074;50.940;5.282;2023-08-01T07:12:26;17.50;99.90
27667;DHT22;15074;50.940;5.282;2023-08-01T07:14:52;17.50;99.90
27667;DHT22;15074;50.940;5.282;2023-08-01T07:17:17;17.50;99.90
27667;DHT22;15074;50.940;5.282;2023-08-01T07:19:43;17.50;99.90
27667;DHT22;15074;50.940;5.282;2023-08-01T07:22:09;17.50;99.90
27667;DHT22;15074;50.940;5.282;2023-08-01T07:24:34;17.70;99.90
27667;DHT22;15074;50.940;5.282;2023-08-01T07:27:00;17.60;99.90
27667;DHT22;15074;50.940;5.282;2023-08-01T07:29:27;17.80;99.90
27667;DHT22;15074;50.940;5.282;2023-08-01T07:31:53;18.60;99.90
27667;DHT22;15074;50.940;5.282;2023-08-01T07:34:18;19.50;99.90
27667;DHT22;15074;50.940;5.282;2023-08-01T07:36:47;20.80;99.90
27667;DHT22;15074;50.940;5.282;2023-08-01T07:39:14;21.40;99.90
27667;DHT22;15074;50.940;5.282;2023-08-01T07:41:40;21.30;99.90
27667;DHT22;15074;50.940;5.282;2023-08-01T07:44:05;20.90;99.90
27667;DHT22;15074;50.940;5.282;2023-08-01T07:46:31;21.50;99.90
27667;DHT22;15074;50.940;5.282;2023-08-01T07:48:57;22.30;99.90
27667;DHT22;15074;50.940;5.282;2023-08-01T07:51:24;22.30;99.90
27667;DHT22;15074;50.940;5.282;2023-08-01T07:53:51;21.90;99.90
27667;DHT22;15074;50.940;5.282;2023-08-01T07:56:18;21.10;99.90
27667;DHT22;15074;50.940;5.282;2023-08-01T07:58:44;20.90;99.90
27667;DHT22;15074;50.940;5.282;2023-08-01T08:01:09;21.30;99.90
27667;DHT22;15074;50.940;5.282;2023-08-01T08:03:35;21.40;99.90
27667;DHT22;15074;50.940;5.282;2023-08-01T08:06:00;21.60;99.90
27667;DHT22;15074;50.940;5.282;2023-08-01T08:08:27;21.30;99.90
27667;DHT22;15074;50.940;5.282;2023-08-01T08:10:53;21.40;99.90
27667;DHT22;15074;50.940;5.282;2023-08-01T08:13:18;20.60;99.90
27667;DHT22;15074;50.940;5.282;2023-08-01T08:15:44;20.20;99.90
27667;DHT22;15074;50.940;5.282;2023-08-01T08:18:10;19.90;99.90
27667;DHT22;15074;50.940;5.282;2023-08-01T08:20:41;19.70;99.90
27667;DHT22;15074;50.940;5.282;2023-08-01T08:23:08;19.40;99.90
27667;DHT22;15074;50.940;5.282;2023-08-01T08:25:34;19.10;99.90
27667;DHT22;15074;50.940;5.282;2023-08-01T08:27:59;19.10;99.90
27667;DHT22;15074;50.940;5.282;2023-08-01T08:30:25;19.30;99.90
27667;DHT22;15074;50.940;5.282;2023-08-01T08:32:50;19.80;99.90
27667;DHT22;15074;50.940;5.282;2023-08-01T08:35:16;20.20;99.90
27667;DHT22;15074;50.940;5.282;2023-08-01T08:37:42;20.20;99.90
27667;DHT22;15074;50.940;5.282;2023-08-01T08:40:08;19.90;99.90
27667;DHT22;15074;50.940;5.282;2023-08-01T08:42:34;20.10;99.90
27667;DHT22;15074;50.940;5.282;2023-08-01T08:45:02;20.90;99.90
27667;DHT22;15074;50.940;5.282;2023-08-01T08:47:31;21.30;99.90
27667;DHT22;15074;50.940;5.282;2023-08-01T08:49:59;20.80;99.90
27667;DHT22;15074;50.940;5.282;2023-08-01T08:52:25;20.80;99.90
27667;DHT22;15074;50.940;5.282;2023-08-01T08:54:52;20.70;99.90
27667;DHT22;15074;50.940;5.282;2023-08-01T08:57:19;20.60;99.90
27667;DHT22;15074;50.940;5.282;2023-08-01T08:59:45;21.80;99.90
27667;DHT22;15074;50.940;5.282;2023-08-01T09:02:13;22.60;99.90
27667;DHT22;15074;50.940;5.282;2023-08-01T09:04:40;22.50;99.90
27667;DHT22;15074;50.940;5.282;2023-08-01T09:07:09;22.30;99.90
27667;DHT22;15074;50.940;5.282;2023-08-01T09:09:34;22.00;99.90
27667;DHT22;15074;50.940;5.282;2023-08-01T09:12:00;22.10;99.90
27667;DHT22;15074;50.940;5.282;2023-08-01T09:14:26;22.90;99.90
27667;DHT22;15074;50.940;5.282;2023-08-01T09:16:52;24.20;99.90
27667;DHT22;15074;50.940;5.282;2023-08-01T09:19:23;24.50;99.90
27667;DHT22;15074;50.940;5.282;2023-08-01T09:21:49;24.80;99.90
27667;DHT22;15074;50.940;5.282;2023-08-01T09:24:17;24.50;99.90
27667;DHT22;15074;50.940;5.282;2023-08-01T09:26:43;24.30;99.90
27667;DHT22;15074;50.940;5.282;2023-08-01T09:29:09;24.60;99.90
27667;DHT22;15074;50.940;5.282;2023-08-01T09:31:40;24.70;99.90
27667;DHT22;15074;50.940;5.282;2023-08-01T09:34:25;24.50;99.90
27667;DHT22;15074;50.940;5.282;2023-08-01T09:36:57;25.20;99.90
27667;DHT22;15074;50.940;5.282;2023-08-01T09:39:23;25.70;99.90
27667;DHT22;15074;50.940;5.282;2023-08-01T09:41:59;26.10;99.90
27667;DHT22;15074;50.940;5.282;2023-08-01T09:44:26;26.10;99.90
27667;DHT22;15074;50.940;5.282;2023-08-01T09:47:02;26.50;99.90
27667;DHT22;15074;50.940;5.282;2023-08-01T09:49:28;26.30;99.90
27667;DHT22;15074;50.940;5.282;2023-08-01T09:51:54;27.00;99.90
27667;DHT22;15074;50.940;5.282;2023-08-01T09:54:21;26.50;99.90
27667;DHT22;15074;50.940;5.282;2023-08-01T09:56:51;26.30;99.90
27667;DHT22;15074;50.940;5.282;2023-08-01T09:59:22;25.90;99.90
27667;DHT22;15074;50.940;5.282;2023-08-01T10:01:52;25.00;99.90
27667;DHT22;15074;50.940;5.282;2023-08-01T10:04:24;25.20;99.90
27667;DHT22;15074;50.940;5.282;2023-08-01T10:06:58;25.40;99.90
27667;DHT22;15074;50.940;5.282;2023-08-01T10:09:25;25.50;99.90
27667;DHT22;15074;50.940;5.282;2023-08-01T10:11:51;26.30;99.90
27667;DHT22;15074;50.940;5.282;2023-08-01T10:14:19;26.60;99.90
27667;DHT22;15074;50.940;5.282;2023-08-01T10:16:46;26.10;99.90
27667;DHT22;15074;50.940;5.282;2023-08-01T10:19:13;25.10;99.90
27667;DHT22;15074;50.940;5.282;2023-08-01T10:21:41;24.50;99.90
27667;DHT22;15074;50.940;5.282;2023-08-01T10:24:07;24.00;99.90
27667;DHT22;15074;50.940;5.282;2023-08-01T10:26:33;23.60;99.90
27667;DHT22;15074;50.940;5.282;2023-08-01T10:29:00;23.20;99.90
27667;DHT22;15074;50.940;5.282;2023-08-01T10:31:27;23.30;99.90
27667;DHT22;15074;50.940;5.282;2023-08-01T10:34:04;23.30;99.90
27667;DHT22;15074;50.940;5.282;2023-08-01T10:36:32;23.50;99.90
27667;DHT22;15074;50.940;5.282;2023-08-01T10:39:00;23.50;99.90
27667;DHT22;15074;50.940;5.282;2023-08-01T10:41:27;23.30;99.90
27667;DHT22;15074;50.940;5.282;2023-08-01T10:44:14;23.00;99.90
27667;DHT22;15074;50.940;5.282;2023-08-01T10:46:47;22.40;99.90
27667;DHT22;15074;50.940;5.282;2023-08-01T10:49:14;22.50;99.90
27667;DHT22;15074;50.940;5.282;2023-08-01T10:51:40;22.70;99.90
27667;DHT22;15074;50.940;5.282;2023-08-01T10:54:05;22.70;99.90
27667;DHT22;15074;50.940;5.282;2023-08-01T10:56:32;22.50;99.90
27667;DHT22;15074;50.940;5.282;2023-08-01T10:58:58;22.50;99.90
27667;DHT22;15074;50.940;5.282;2023-08-01T11:01:24;22.40;99.90
27667;DHT22;15074;50.940;5.282;2023-08-01T11:03:51;22.80;99.90
27667;DHT22;15074;50.940;5.282;2023-08-01T11:06:17;23.00;99.90
27667;DHT22;15074;50.940;5.282;2023-08-01T11:08:43;23.50;99.90
27667;DHT22;15074;50.940;5.282;2023-08-01T11:11:12;23.50;99.90
27667;DHT22;15074;50.940;5.282;2023-08-01T11:13:38;23.40;99.90
27667;DHT22;15074;50.940;5.282;2023-08-01T11:16:04;23.60;99.90
27667;DHT22;15074;50.940;5.282;2023-08-01T11:18:44;24.00;99.90
27667;DHT22;15074;50.940;5.282;2023-08-01T11:21:10;24.70;99.90
27667;DHT22;15074;50.940;5.282;2023-08-01T11:23:36;24.90;99.90
27667;DHT22;15074;50.940;5.282;2023-08-01T11:26:10;24.50;99.90
27667;DHT22;15074;50.940;5.282;2023-08-01T11:28:36;24.40;99.90
27667;DHT22;15074;50.940;5.282;2023-08-01T11:31:13;24.00;99.90
27667;DHT22;15074;50.940;5.282;2023-08-01T11:33:39;24.20;99.90
27667;DHT22;15074;50.940;5.282;2023-08-01T11:36:05;24.50;99.90
27667;DHT22;15074;50.940;5.282;2023-08-01T11:38:34;24.20;99.90
27667;DHT22;15074;50.940;5.282;2023-08-01T11:41:01;23.90;99.90
27667;DHT22;15074;50.940;5.282;2023-08-01T11:43:41;24.20;99.90
27667;DHT22;15074;50.940;5.282;2023-08-01T11:46:07;24.50;99.90
27667;DHT22;15074;50.940;5.282;2023-08-01T11:48:32;25.00;99.90
27667;DHT22;15074;50.940;5.282;2023-08-01T11:51:00;24.70;99.90
27667;DHT22;15074;50.940;5.282;2023-08-01T11:53:29;24.90;99.90
27667;DHT22;15074;50.940;5.282;2023-08-01T11:55:56;24.70;99.90
27667;DHT22;15074;50.940;5.282;2023-08-01T11:58:36;24.80;99.90
27667;DHT22;15074;50.940;5.282;2023-08-01T12:01:10;24.60;99.90
27667;DHT22;15074;50.940;5.282;2023-08-01T12:03:52;24.00;99.90
27667;DHT22;15074;50.940;5.282;2023-08-01T12:06:22;24.10;99.90
27667;DHT22;15074;50.940;5.282;2023-08-01T12:08:52;24.50;99.90
27667;DHT22;15074;50.940;5.282;2023-08-01T12:13:59;24.80;99.90
27667;DHT22;15074;50.940;5.282;2023-08-01T12:16:25;24.10;99.90
27667;DHT22;15074;50.940;5.282;2023-08-01T12:18:51;23.90;99.90
27667;DHT22;15074;50.940;5.282;2023-08-01T12:21:17;23.50;99.90
27667;DHT22;15074;50.940;5.282;2023-08-01T12:23:43;23.80;99.90
27667;DHT22;15074;50.940;5.282;2023-08-01T12:26:08;23.90;99.90
27667;DHT22;15074;50.940;5.282;2023-08-01T12:28:35;24.50;99.90
27667;DHT22;15074;50.940;5.282;2023-08-01T12:31:00;24.50;99.90
27667;DHT22;15074;50.940;5.282;2023-08-01T12:33:26;24.20;99.90
27667;DHT22;15074;50.940;5.282;2023-08-01T12:35:52;23.60;99.90
27667;DHT22;15074;50.940;5.282;2023-08-01T12:38:18;23.10;99.90
27667;DHT22;15074;50.940;5.282;2023-08-01T12:40:44;22.80;99.90
27667;DHT22;15074;50.940;5.282;2023-08-01T12:43:09;22.50;99.90
27667;DHT22;15074;50.940;5.282;2023-08-01T12:45:35;22.10;99.90
27667;DHT22;15074;50.940;5.282;2023-08-01T12:48:01;22.30;99.90
27667;DHT22;15074;50.940;5.282;2023-08-01T12:50:26;22.60;99.90
27667;DHT22;15074;50.940;5.282;2023-08-01T12:52:52;23.40;99.90
27667;DHT22;15074;50.940;5.282;2023-08-01T12:55:18;23.80;99.90
27667;DHT22;15074;50.940;5.282;2023-08-01T12:57:43;24.20;99.90
27667;DHT22;15074;50.940;5.282;2023-08-01T13:00:10;24.70;99.90
27667;DHT22;15074;50.940;5.282;2023-08-01T13:02:36;25.10;99.90
27667;DHT22;15074;50.940;5.282;2023-08-01T13:05:03;25.10;99.90
27667;DHT22;15074;50.940;5.282;2023-08-01T13:07:29;25.00;99.90
27667;DHT22;15074;50.940;5.282;2023-08-01T13:09:58;24.50;99.90
27667;DHT22;15074;50.940;5.282;2023-08-01T13:12:24;23.70;99.90
27667;DHT22;15074;50.940;5.282;2023-08-01T13:14:50;23.40;99.90
27667;DHT22;15074;50.940;5.282;2023-08-01T13:17:15;23.30;99.90
27667;DHT22;15074;50.940;5.282;2023-08-01T13:19:41;23.00;99.90
27667;DHT22;15074;50.940;5.282;2023-08-01T13:22:07;22.30;99.90
27667;DHT22;15074;50.940;5.282;2023-08-01T13:24:32;22.30;99.90
27667;DHT22;15074;50.940;5.282;2023-08-01T13:26:58;22.40;99.90
27667;DHT22;15074;50.940;5.282;2023-08-01T13:29:24;22.70;99.90
27667;DHT22;15074;50.940;5.282;2023-08-01T13:31:50;22.60;99.90
27667;DHT22;15074;50.940;5.282;2023-08-01T13:34:15;22.50;99.90
27667;DHT22;15074;50.940;5.282;2023-08-01T13:36:43;22.20;99.90
27667;DHT22;15074;50.940;5.282;2023-08-01T13:39:08;22.00;99.90
27667;DHT22;15074;50.940;5.282;2023-08-01T13:41:35;21.90;99.90
27667;DHT22;15074;50.940;5.282;2023-08-01T13:44:00;21.80;99.90
27667;DHT22;15074;50.940;5.282;2023-08-01T13:46:26;21.80;99.90
27667;DHT22;15074;50.940;5.282;2023-08-01T13:48:51;21.70;99.90
27667;DHT22;15074;50.940;5.282;2023-08-01T13:51:17;21.90;99.90
27667;DHT22;15074;50.940;5.282;2023-08-01T13:53:43;21.90;99.90
27667;DHT22;15074;50.940;5.282;2023-08-01T13:56:09;21.60;99.90
27667;DHT22;15074;50.940;5.282;2023-08-01T13:58:35;21.70;99.90
27667;DHT22;15074;50.940;5.282;2023-08-01T14:01:05;21.80;99.90
27667;DHT22;15074;50.940;5.282;2023-08-01T14:03:36;21.70;99.90
27667;DHT22;15074;50.940;5.282;2023-08-01T14:06:08;21.80;99.90
27667;DHT22;15074;50.940;5.282;2023-08-01T14:08:34;21.90;99.90
27667;DHT22;15074;50.940;5.282;2023-08-01T14:11:02;22.10;99.90
27667;DHT22;15074;50.940;5.282;2023-08-01T14:13:28;22.70;99.90
27667;DHT22;15074;50.940;5.282;2023-08-01T14:15:54;23.10;99.90
27667;DHT22;15074;50.940;5.282;2023-08-01T14:18:20;23.50;99.90
27667;DHT22;15074;50.940;5.282;2023-08-01T14:20:45;24.20;99.90
27667;DHT22;15074;50.940;5.282;2023-08-01T14:23:11;24.50;99.90
27667;DHT22;15074;50.940;5.282;2023-08-01T14:25:37;24.10;99.90
27667;DHT22;15074;50.940;5.282;2023-08-01T14:28:03;24.10;99.90
27667;DHT22;15074;50.940;5.282;2023-08-01T14:30:28;24.00;99.90
27667;DHT22;15074;50.940;5.282;2023-08-01T14:33:05;23.80;99.90
27667;DHT22;15074;50.940;5.282;2023-08-01T14:35:31;23.60;99.90
27667;DHT22;15074;50.940;5.282;2023-08-01T14:37:57;23.10;99.90
27667;DHT22;15074;50.940;5.282;2023-08-01T14:40:24;22.90;99.90
27667;DHT22;15074;50.940;5.282;2023-08-01T14:42:50;22.80;99.90
27667;DHT22;15074;50.940;5.282;2023-08-01T14:45:16;22.60;99.90
27667;DHT22;15074;50.940;5.282;2023-08-01T14:47:42;22.50;99.90
27667;DHT22;15074;50.940;5.282;2023-08-01T14:50:11;22.40;99.90
27667;DHT22;15074;50.940;5.282;2023-08-01T14:52:37;22.30;99.90
27667;DHT22;15074;50.940;5.282;2023-08-01T14:55:03;22.20;99.90
27667;DHT22;15074;50.940;5.282;2023-08-01T14:57:29;21.80;99.90
27667;DHT22;15074;50.940;5.282;2023-08-01T14:59:55;21.60;99.90
27667;DHT22;15074;50.940;5.282;2023-08-01T15:02:20;21.50;99.90
27667;DHT22;15074;50.940;5.282;2023-08-01T15:04:51;21.40;99.90
27667;DHT22;15074;50.940;5.282;2023-08-01T15:07:17;21.10;99.90
27667;DHT22;15074;50.940;5.282;2023-08-01T15:09:43;20.90;99.90
27667;DHT22;15074;50.940;5.282;2023-08-01T15:12:10;20.90;99.90
27667;DHT22;15074;50.940;5.282;2023-08-01T15:14:38;20.80;99.90
27667;DHT22;15074;50.940;5.282;2023-08-01T15:17:04;21.00;99.90
27667;DHT22;15074;50.940;5.282;2023-08-01T15:19:32;21.00;99.90
27667;DHT22;15074;50.940;5.282;2023-08-01T15:21:57;21.10;99.90
27667;DHT22;15074;50.940;5.282;2023-08-01T15:24:24;21.10;99.90
27667;DHT22;15074;50.940;5.282;2023-08-01T15:26:49;20.90;99.90
27667;DHT22;15074;50.940;5.282;2023-08-01T15:29:15;20.60;99.90